Time;durP1;ratioP1;P1;durP2;ratioP2;P2;SDS_P1;SDS_P2;PMS_P1;PMS_P2;Temp;Humidity;BMP_temperature;BMP_pressure;BME280_temperature;BME280_humidity;BME280_pressure;Samples;Min_cycle;Max_cycle;Signal;HPM_P1;HPM_P2
2021/06/12 00:01:36;;;;;;;11.38;8.45;;;21.70;99.90;;;;;;5069613;28;20263;-70
2021/06/12 00:04:03;;;;;;;9.98;7.57;;;21.60;99.90;;;;;;5069824;28;20210;-70
2021/06/12 00:06:30;;;;;;;7.88;7.22;;;21.50;99.90;;;;;;5069410;28;20206;-70
2021/06/12 00:08:56;;;;;;;9.50;7.78;;;21.50;99.90;;;;;;5069522;28;20202;-70
2021/06/12 00:11:24;;;;;;;7.82;7.13;;;21.50;99.90;;;;;;5069189;28;20283;-70
2021/06/12 00:13:51;;;;;;;10.95;6.40;;;21.60;99.90;;;;;;5070028;28;20209;-70
2021/06/12 00:16:19;;;;;;;9.65;7.80;;;21.50;99.90;;;;;;5069753;28;20209;-71
2021/06/12 00:18:45;;;;;;;7.95;6.70;;;21.50;99.90;;;;;;5070311;28;20296;-70
2021/06/12 00:21:12;;;;;;;8.15;6.93;;;21.40;99.90;;;;;;5072766;28;20629;-70
2021/06/12 00:23:38;;;;;;;11.25;7.28;;;21.30;99.90;;;;;;5073062;28;20202;-70
2021/06/12 00:26:05;;;;;;;9.65;7.60;;;21.40;99.90;;;;;;5072708;28;20209;-70
2021/06/12 00:28:33;;;;;;;8.15;7.15;;;21.40;99.90;;;;;;5073107;28;20206;-70
2021/06/12 00:30:59;;;;;;;9.15;8.23;;;21.30;99.90;;;;;;5073292;28;20233;-70
2021/06/12 00:33:26;;;;;;;6.80;6.30;;;21.30;99.90;;;;;;5072531;28;20577;-70
2021/06/12 00:35:52;;;;;;;11.27;7.95;;;21.20;99.90;;;;;;5073124;28;20213;-72
2021/06/12 00:38:19;;;;;;;8.15;7.35;;;21.20;99.90;;;;;;5073016;28;20206;-71
2021/06/12 00:40:45;;;;;;;8.52;7.82;;;21.20;99.90;;;;;;5073455;28;20296;-72
2021/06/12 00:43:12;;;;;;;12.88;8.30;;;21.20;99.90;;;;;;5073040;28;20682;-71
2021/06/12 00:45:45;;;;;;;9.55;8.75;;;21.00;99.90;;;;;;5072380;28;20206;-72
2021/06/12 00:48:12;;;;;;;9.70;8.80;;;21.00;99.90;;;;;;5072875;28;20275;-71
2021/06/12 00:50:40;;;;;;;9.93;7.97;;;21.10;99.90;;;;;;5074382;28;20628;-72
2021/06/12 00:53:07;;;;;;;9.50;8.48;;;21.00;99.90;;;;;;5092728;28;20664;-72
2021/06/12 00:55:34;;;;;;;9.48;8.70;;;20.90;99.90;;;;;;5092164;28;20210;-71
2021/06/12 00:58:01;;;;;;;10.32;9.13;;;20.80;99.90;;;;;;5092781;28;20227;-71
2021/06/12 01:00:27;;;;;;;10.98;9.00;;;20.80;99.90;;;;;;5092398;28;20635;-71
2021/06/12 01:02:55;;;;;;;11.02;9.85;;;20.80;99.90;;;;;;5092827;28;20213;-71
2021/06/12 01:05:23;;;;;;;10.45;8.75;;;20.70;99.90;;;;;;5092080;28;20240;-72
2021/06/12 01:07:50;;;;;;;15.80;10.98;;;20.60;99.90;;;;;;5092852;28;20201;-71
2021/06/12 01:10:19;;;;;;;10.30;9.30;;;20.70;99.90;;;;;;5092750;28;20205;-71
2021/06/12 01:12:56;;;;;;;13.13;9.88;;;20.70;99.90;;;;;;5093075;28;20208;-71
2021/06/12 01:15:27;;;;;;;12.95;10.32;;;20.50;99.90;;;;;;5091923;28;20219;-71
2021/06/12 01:17:59;;;;;;;10.40;9.32;;;20.40;99.90;;;;;;5092706;28;20624;-71
2021/06/12 01:20:56;;;;;;;10.25;9.27;;;20.40;99.90;;;;;;5092111;28;20633;-71
2021/06/12 01:24:20;;;;;;;12.43;10.32;;;20.40;99.90;;;;;;5071551;28;20228;-71
2021/06/12 01:27:36;;;;;;;11.27;10.20;;;20.40;99.90;;;;;;5037580;28;20689;-71
2021/06/12 01:30:15;;;;;;;9.63;8.80;;;20.50;99.90;;;;;;5052500;28;20617;-70
2021/06/12 01:32:46;;;;;;;11.70;10.45;;;20.50;99.90;;;;;;5091045;28;20279;-70
2021/06/12 01:35:16;;;;;;;12.23;10.93;;;20.40;99.90;;;;;;5092365;28;20201;-70
2021/06/12 01:37:45;;;;;;;11.15;10.07;;;20.20;99.90;;;;;;5091728;28;20213;-70
2021/06/12 01:40:13;;;;;;;11.38;10.27;;;20.10;99.90;;;;;;5091796;28;20201;-70
2021/06/12 01:42:43;;;;;;;11.43;9.85;;;20.10;99.90;;;;;;5091193;28;20258;-70
2021/06/12 01:45:12;;;;;;;16.60;9.75;;;20.00;99.90;;;;;;5091918;28;20231;-70
2021/06/12 01:47:38;;;;;;;10.80;9.73;;;20.00;99.90;;;;;;5091796;28;20558;-70
2021/06/12 01:50:07;;;;;;;11.68;10.50;;;20.00;99.90;;;;;;5091780;28;20205;-70
2021/06/12 01:52:37;;;;;;;9.65;8.52;;;19.90;99.90;;;;;;5091126;28;20612;-71
2021/06/12 01:55:05;;;;;;;12.65;9.73;;;19.80;99.90;;;;;;5091607;28;20197;-72
2021/06/12 01:57:32;;;;;;;9.68;8.70;;;19.90;99.90;;;;;;5091559;28;20212;-71
2021/06/12 02:00:00;;;;;;;11.13;10.02;;;20.00;99.90;;;;;;5091476;28;20209;-71
2021/06/12 02:02:28;;;;;;;13.07;9.32;;;19.90;99.90;;;;;;5091539;28;20206;-72
2021/06/12 02:04:57;;;;;;;10.30;9.27;;;19.80;99.90;;;;;;5091637;28;20209;-71
2021/06/12 02:07:24;;;;;;;12.95;10.80;;;19.60;99.90;;;;;;5091046;28;20209;-70
2021/06/12 02:09:52;;;;;;;10.27;9.18;;;19.60;99.90;;;;;;5091320;28;20700;-70
2021/06/12 02:12:19;;;;;;;9.65;8.75;;;19.60;99.90;;;;;;5091621;28;20606;-71
2021/06/12 02:14:47;;;;;;;10.75;9.65;;;19.50;99.90;;;;;;5091981;28;20303;-70
2021/06/12 02:17:15;;;;;;;9.30;8.40;;;19.50;99.90;;;;;;5091594;28;20202;-71
2021/06/12 02:19:44;;;;;;;10.18;9.18;;;19.40;99.90;;;;;;5090682;28;20688;-70
2021/06/12 02:22:11;;;;;;;12.48;9.18;;;19.40;99.90;;;;;;5090637;28;20224;-70
2021/06/12 02:24:37;;;;;;;11.95;10.68;;;19.50;99.90;;;;;;5090998;28;20201;-71
2021/06/12 02:27:08;;;;;;;10.23;9.23;;;19.60;99.90;;;;;;5091084;28;20262;-71
2021/06/12 02:29:36;;;;;;;13.80;9.93;;;19.60;99.90;;;;;;5090555;28;20577;-72
2021/06/12 02:32:06;;;;;;;14.48;9.20;;;19.50;99.90;;;;;;5091175;28;20293;-72
2021/06/12 02:34:33;;;;;;;11.80;9.23;;;19.50;99.90;;;;;;5090677;28;20205;-71
2021/06/12 02:37:02;;;;;;;12.82;9.43;;;19.50;99.90;;;;;;5090804;28;20729;-71
2021/06/12 02:39:29;;;;;;;10.35;8.57;;;19.50;99.90;;;;;;5090289;28;20288;-72
2021/06/12 02:41:55;;;;;;;9.75;8.82;;;19.50;99.90;;;;;;5090698;28;20730;-71
2021/06/12 02:44:22;;;;;;;9.02;8.10;;;19.60;99.90;;;;;;5090520;28;20205;-71
2021/06/12 02:46:49;;;;;;;11.05;9.75;;;19.40;99.90;;;;;;5091328;28;20235;-70
2021/06/12 02:49:19;;;;;;;11.23;9.70;;;19.40;99.90;;;;;;5090788;28;20220;-71
2021/06/12 02:51:48;;;;;;;11.48;9.00;;;19.50;99.90;;;;;;5091194;28;20244;-70
2021/06/12 02:54:23;;;;;;;10.30;9.25;;;19.40;99.90;;;;;;5086450;28;20240;-70
2021/06/12 02:56:51;;;;;;;13.00;9.65;;;19.40;99.90;;;;;;5066798;28;20572;-71
2021/06/12 02:59:19;;;;;;;12.35;9.60;;;19.40;99.90;;;;;;5090839;28;20201;-71
2021/06/12 03:01:46;;;;;;;12.75;9.32;;;19.50;99.90;;;;;;5076752;28;20205;-70
2021/06/12 03:04:16;;;;;;;11.68;9.80;;;19.50;99.90;;;;;;5090653;28;20591;-69
2021/06/12 03:06:44;;;;;;;12.02;9.40;;;19.30;99.90;;;;;;5090086;28;20292;-70
2021/06/12 03:09:13;;;;;;;12.43;9.77;;;19.20;99.90;;;;;;5090988;28;20205;-70
2021/06/12 03:11:43;;;;;;;10.68;9.73;;;19.40;99.90;;;;;;5090052;28;20239;-70
2021/06/12 03:14:11;;;;;;;10.25;9.35;;;19.30;99.90;;;;;;5074496;28;20604;-71
2021/06/12 03:16:40;;;;;;;12.50;11.23;;;19.30;99.90;;;;;;5090448;28;20205;-70
2021/06/12 03:19:08;;;;;;;11.30;9.20;;;19.20;99.90;;;;;;5090264;28;20210;-71
2021/06/12 03:21:36;;;;;;;10.00;8.05;;;19.20;99.90;;;;;;5089896;28;20228;-71
2021/06/12 03:24:03;;;;;;;10.77;9.60;;;19.10;99.90;;;;;;5090460;28;20243;-71
2021/06/12 03:26:29;;;;;;;14.50;10.07;;;19.20;99.90;;;;;;5089994;28;20209;-71
2021/06/12 03:28:57;;;;;;;11.85;9.25;;;19.30;99.90;;;;;;5090005;28;20205;-70
2021/06/12 03:31:24;;;;;;;9.02;8.13;;;19.10;99.90;;;;;;5090208;28;20245;-72
2021/06/12 03:33:52;;;;;;;9.80;8.45;;;19.20;99.90;;;;;;5090181;28;20205;-71
2021/06/12 03:36:19;;;;;;;11.40;9.40;;;19.30;99.90;;;;;;5090873;28;20205;-71
2021/06/12 03:38:45;;;;;;;12.68;8.48;;;19.30;99.90;;;;;;5090793;28;20288;-72
2021/06/12 03:41:12;;;;;;;10.65;8.68;;;19.40;99.90;;;;;;5090073;28;20216;-71
2021/06/12 03:43:40;;;;;;;15.93;9.68;;;19.40;99.90;;;;;;5089879;28;20216;-71
2021/06/12 03:46:08;;;;;;;9.65;7.93;;;19.40;99.90;;;;;;5090156;28;20197;-71
2021/06/12 03:48:38;;;;;;;9.57;8.30;;;19.30;99.90;;;;;;5089959;28;20212;-71
2021/06/12 03:51:05;;;;;;;12.75;9.48;;;19.30;99.90;;;;;;5090070;28;20264;-70
2021/06/12 03:53:43;;;;;;;9.98;8.07;;;19.20;99.90;;;;;;5089725;28;20201;-71
2021/06/12 03:56:10;;;;;;;8.45;7.75;;;19.30;99.90;;;;;;5093900;28;20209;-70
2021/06/12 03:58:37;;;;;;;12.88;9.32;;;19.20;99.90;;;;;;5093543;28;20205;-72
2021/06/12 04:01:03;;;;;;;9.80;8.90;;;19.20;99.90;;;;;;5094223;28;20210;-72
2021/06/12 04:03:31;;;;;;;9.18;8.10;;;19.20;99.90;;;;;;5093069;28;20201;-71
2021/06/12 04:05:58;;;;;;;9.70;8.80;;;19.30;99.90;;;;;;5094067;28;20251;-71
2021/06/12 04:08:24;;;;;;;9.50;8.70;;;19.20;99.90;;;;;;5093371;28;20208;-70
2021/06/12 04:10:51;;;;;;;10.18;9.18;;;19.10;99.90;;;;;;5094173;28;20201;-71
2021/06/12 04:13:17;;;;;;;10.45;9.27;;;19.00;99.90;;;;;;5094260;28;20212;-72
2021/06/12 04:15:44;;;;;;;9.23;8.43;;;19.00;99.90;;;;;;5093176;28;20214;-71
2021/06/12 04:18:10;;;;;;;9.80;8.82;;;19.20;99.90;;;;;;5093437;28;20206;-71
2021/06/12 04:20:39;;;;;;;12.63;8.77;;;19.00;99.90;;;;;;5092885;28;20205;-71
2021/06/12 04:23:06;;;;;;;10.75;9.70;;;18.90;99.90;;;;;;5093343;28;20216;-70
2021/06/12 04:25:32;;;;;;;13.18;10.45;;;18.80;99.90;;;;;;5092996;28;20214;-72
2021/06/12 04:27:59;;;;;;;9.98;8.73;;;18.60;99.90;;;;;;5093793;28;20209;-71
2021/06/12 04:30:26;;;;;;;20.42;10.35;;;18.70;99.90;;;;;;5093101;28;20205;-71
2021/06/12 04:32:52;;;;;;;10.77;9.55;;;18.70;99.90;;;;;;5093384;28;20608;-70
2021/06/12 04:35:19;;;;;;;12.18;10.30;;;18.60;99.90;;;;;;5093280;28;20267;-69
2021/06/12 04:37:47;;;;;;;12.85;9.35;;;18.60;99.90;;;;;;5093225;28;20309;-71
2021/06/12 04:40:15;;;;;;;10.52;9.52;;;18.80;99.90;;;;;;5093753;28;20266;-71
2021/06/12 04:42:43;;;;;;;9.43;7.47;;;18.90;99.90;;;;;;5092590;28;20611;-71
2021/06/12 04:45:10;;;;;;;9.27;8.07;;;19.10;99.90;;;;;;5093064;28;20216;-71
2021/06/12 04:47:37;;;;;;;12.98;9.55;;;19.20;99.90;;;;;;5092661;28;20205;-71
2021/06/12 04:50:05;;;;;;;12.20;8.52;;;19.10;99.90;;;;;;5093049;28;20206;-71
2021/06/12 04:52:32;;;;;;;11.32;9.70;;;19.00;99.90;;;;;;5092437;28;20724;-70
2021/06/12 04:55:00;;;;;;;10.20;8.93;;;18.90;99.90;;;;;;5092979;28;20276;-71
2021/06/12 04:57:27;;;;;;;9.93;9.02;;;18.90;99.90;;;;;;5092389;28;20669;-70
2021/06/12 04:59:53;;;;;;;12.73;11.30;;;19.10;99.90;;;;;;5092660;28;20214;-70
2021/06/12 05:02:20;;;;;;;13.05;9.20;;;18.90;99.90;;;;;;5092167;28;20202;-70
2021/06/12 05:04:46;;;;;;;12.23;10.88;;;18.90;99.90;;;;;;5092903;28;20288;-70
2021/06/12 05:07:12;;;;;;;9.30;8.48;;;19.00;99.90;;;;;;5092688;28;20210;-72
2021/06/12 05:09:39;;;;;;;9.25;8.35;;;18.90;99.90;;;;;;5092584;28;20206;-71
2021/06/12 05:12:08;;;;;;;9.77;8.73;;;18.90;99.90;;;;;;5092259;28;20236;-72
2021/06/12 05:14:35;;;;;;;9.93;8.95;;;19.10;99.90;;;;;;5092316;28;20201;-71
2021/06/12 05:17:04;;;;;;;9.82;8.82;;;19.20;99.90;;;;;;5091926;28;20209;-72
2021/06/12 05:19:30;;;;;;;12.65;8.98;;;19.20;99.90;;;;;;5092158;28;20209;-72
2021/06/12 05:21:57;;;;;;;10.50;8.90;;;19.20;99.90;;;;;;5092300;28;20345;-71
2021/06/12 05:24:23;;;;;;;10.02;7.90;;;19.30;99.90;;;;;;5092231;28;20209;-72
2021/06/12 05:26:50;;;;;;;10.52;8.27;;;19.40;99.90;;;;;;5092623;28;20202;-71
2021/06/12 05:29:18;;;;;;;10.52;9.52;;;19.30;99.90;;;;;;5092217;28;20209;-71
2021/06/12 05:31:44;;;;;;;9.07;8.35;;;19.20;99.90;;;;;;5091573;28;20229;-72
2021/06/12 05:34:11;;;;;;;15.82;8.93;;;19.30;99.90;;;;;;5092187;28;20202;-72
2021/06/12 05:36:37;;;;;;;9.27;8.38;;;19.30;99.90;;;;;;5092040;28;20217;-72
2021/06/12 05:39:06;;;;;;;10.27;9.02;;;19.20;99.90;;;;;;5092179;28;20228;-72
2021/06/12 05:41:33;;;;;;;10.90;9.80;;;19.10;99.90;;;;;;5091511;28;20209;-72
2021/06/12 05:43:59;;;;;;;10.05;8.10;;;19.00;99.90;;;;;;5091942;28;20206;-72
2021/06/12 05:46:27;;;;;;;9.48;8.10;;;18.80;99.90;;;;;;5091302;28;20226;-72
2021/06/12 05:48:54;;;;;;;11.55;8.15;;;18.80;99.90;;;;;;5092168;28;20205;-72
2021/06/12 05:51:20;;;;;;;9.55;8.32;;;18.80;99.90;;;;;;5091362;28;20583;-70
2021/06/12 05:53:47;;;;;;;9.60;8.68;;;18.90;99.90;;;;;;5092048;28;20589;-71
2021/06/12 05:56:14;;;;;;;9.98;8.98;;;18.80;99.90;;;;;;5091824;28;20209;-72
2021/06/12 05:58:40;;;;;;;10.13;8.43;;;18.80;99.90;;;;;;5091222;28;20201;-71
2021/06/12 06:01:08;;;;;;;9.52;8.63;;;18.80;99.90;;;;;;5091660;28;20209;-73
2021/06/12 06:03:36;;;;;;;10.35;8.45;;;18.70;99.90;;;;;;5091213;28;20209;-72
2021/06/12 06:06:03;;;;;;;9.10;8.20;;;18.80;99.90;;;;;;5091958;28;20201;-71
2021/06/12 06:08:30;;;;;;;8.80;7.90;;;18.80;99.90;;;;;;5091022;28;20212;-70
2021/06/12 06:10:56;;;;;;;11.50;9.05;;;18.80;99.90;;;;;;5091499;28;20286;-69
2021/06/12 06:13:23;;;;;;;9.65;8.60;;;18.90;99.90;;;;;;5090694;28;20201;-68
2021/06/12 06:15:49;;;;;;;8.88;8.10;;;19.00;99.90;;;;;;5091494;28;20670;-68
2021/06/12 06:18:16;;;;;;;9.07;8.18;;;19.00;99.90;;;;;;5091459;28;20235;-70
2021/06/12 06:20:44;;;;;;;11.48;9.07;;;18.80;99.90;;;;;;5090792;28;20266;-68
2021/06/12 06:23:11;;;;;;;10.43;8.95;;;18.90;99.90;;;;;;5091044;28;20240;-68
2021/06/12 06:25:38;;;;;;;8.98;8.18;;;19.00;99.90;;;;;;5090764;28;20591;-67
2021/06/12 06:28:05;;;;;;;11.15;8.65;;;19.10;99.90;;;;;;5090696;28;20247;-68
2021/06/12 06:30:31;;;;;;;7.65;7.05;;;19.10;99.90;;;;;;5090373;28;20549;-69
2021/06/12 06:32:58;;;;;;;8.52;7.65;;;19.40;99.90;;;;;;5089852;28;20225;-68
2021/06/12 06:35:25;;;;;;;10.00;7.53;;;19.70;99.90;;;;;;5078760;28;20202;-68
2021/06/12 06:37:52;;;;;;;8.35;7.50;;;19.60;99.90;;;;;;5090489;28;20206;-70
2021/06/12 06:40:19;;;;;;;11.15;8.38;;;19.30;99.90;;;;;;5084229;28;20209;-68
2021/06/12 06:42:46;;;;;;;9.27;7.72;;;19.30;99.90;;;;;;5077146;28;20210;-71
2021/06/12 06:45:13;;;;;;;12.00;9.63;;;19.30;99.90;;;;;;5076977;28;20680;-72
2021/06/12 06:47:39;;;;;;;9.98;8.30;;;19.20;99.90;;;;;;5079689;28;20235;-71
2021/06/12 06:50:07;;;;;;;9.30;8.48;;;19.20;99.90;;;;;;5076898;28;20621;-68
2021/06/12 06:52:34;;;;;;;8.57;7.82;;;19.20;99.90;;;;;;5081976;28;20240;-71
2021/06/12 06:55:02;;;;;;;10.85;8.57;;;19.20;99.90;;;;;;5076497;28;20198;-70
2021/06/12 06:57:28;;;;;;;9.68;8.70;;;19.40;99.90;;;;;;5069286;28;20255;-70
2021/06/12 06:59:55;;;;;;;10.02;8.15;;;19.30;99.90;;;;;;5075595;28;20210;-70
2021/06/12 07:02:21;;;;;;;10.38;8.20;;;19.30;99.90;;;;;;5070718;28;20626;-68
2021/06/12 07:04:48;;;;;;;10.40;8.35;;;19.40;99.90;;;;;;5069867;28;20232;-67
2021/06/12 07:07:14;;;;;;;9.18;8.38;;;19.40;99.90;;;;;;5069961;28;20558;-70
2021/06/12 07:09:41;;;;;;;10.65;8.40;;;19.40;99.90;;;;;;5069209;28;20206;-69
2021/06/12 07:12:10;;;;;;;10.30;9.18;;;19.40;99.90;;;;;;5069257;28;20252;-70
2021/06/12 07:14:39;;;;;;;12.43;8.55;;;19.20;99.90;;;;;;5069884;28;20662;-70
2021/06/12 07:17:05;;;;;;;9.63;8.73;;;19.30;99.90;;;;;;5070099;28;20259;-68
2021/06/12 07:19:32;;;;;;;11.07;9.38;;;19.30;99.90;;;;;;5071892;28;20213;-70
2021/06/12 07:21:59;;;;;;;13.65;8.95;;;19.40;99.90;;;;;;5069714;28;20221;-71
2021/06/12 07:24:25;;;;;;;10.30;9.23;;;19.40;99.90;;;;;;5067024;28;20264;-68
2021/06/12 07:26:52;;;;;;;17.48;8.65;;;19.30;99.90;;;;;;5078936;28;20201;-71
2021/06/12 07:29:20;;;;;;;9.88;8.07;;;19.50;99.90;;;;;;5082121;28;20210;-70
2021/06/12 07:31:46;;;;;;;11.73;9.80;;;19.50;99.90;;;;;;5090868;28;20730;-71
2021/06/12 07:34:13;;;;;;;9.85;8.52;;;19.50;99.90;;;;;;5087591;28;20693;-73
2021/06/12 07:36:40;;;;;;;14.68;9.60;;;19.40;99.90;;;;;;5090681;28;20619;-74
2021/06/12 07:39:08;;;;;;;10.90;9.15;;;19.50;99.90;;;;;;5079795;28;20259;-73
2021/06/12 07:41:35;;;;;;;13.32;9.95;;;19.60;99.90;;;;;;5090364;28;20201;-70
2021/06/12 07:44:01;;;;;;;9.75;8.80;;;19.60;99.90;;;;;;5077322;28;20267;-68
2021/06/12 07:46:29;;;;;;;13.95;11.52;;;19.50;99.90;;;;;;5073185;28;20206;-70
2021/06/12 07:48:56;;;;;;;10.40;9.45;;;19.50;99.90;;;;;;5074084;28;20664;-70
2021/06/12 07:51:22;;;;;;;10.35;9.30;;;19.70;99.90;;;;;;5072079;28;20206;-71
2021/06/12 07:53:49;;;;;;;10.07;9.07;;;19.70;99.90;;;;;;5073927;28;20276;-68
2021/06/12 07:56:16;;;;;;;15.48;10.43;;;19.70;99.90;;;;;;5073896;28;20202;-71
2021/06/12 07:58:42;;;;;;;9.90;9.00;;;19.60;99.90;;;;;;5081323;28;20205;-71
2021/06/12 08:01:08;;;;;;;11.02;9.82;;;19.60;99.90;;;;;;5093988;28;20228;-69
2021/06/12 08:03:37;;;;;;;10.15;9.10;;;19.60;99.90;;;;;;5081927;28;20231;-70
2021/06/12 08:06:04;;;;;;;11.20;10.07;;;19.50;99.90;;;;;;5084025;28;20210;-71
2021/06/12 08:08:30;;;;;;;11.43;10.30;;;19.70;99.90;;;;;;5072739;28;20696;-70
2021/06/12 08:10:57;;;;;;;11.85;9.68;;;19.80;99.90;;;;;;5072013;28;20206;-68
2021/06/12 08:13:23;;;;;;;19.42;15.02;;;19.60;99.90;;;;;;5072416;28;20234;-67
2021/06/12 08:15:50;;;;;;;13.75;12.45;;;19.70;99.90;;;;;;5076639;28;20198;-68
2021/06/12 08:18:17;;;;;;;11.55;10.48;;;19.70;99.90;;;;;;5073227;28;20696;-71
2021/06/12 08:20:44;;;;;;;11.48;10.32;;;19.90;99.90;;;;;;5072080;28;20202;-70
2021/06/12 08:23:11;;;;;;;11.80;10.60;;;20.00;99.90;;;;;;5075797;28;20245;-70
2021/06/12 08:25:37;;;;;;;10.80;9.05;;;20.00;99.90;;;;;;5071167;28;20217;-71
2021/06/12 08:28:05;;;;;;;11.25;10.13;;;20.10;99.90;;;;;;5072120;28;20206;-70
2021/06/12 08:30:34;;;;;;;12.63;9.82;;;20.00;99.90;;;;;;5071180;28;20647;-70
2021/06/12 08:33:01;;;;;;;10.15;9.15;;;20.10;99.90;;;;;;5074382;28;20235;-71
2021/06/12 08:35:28;;;;;;;11.00;10.00;;;20.20;99.90;;;;;;5072097;28;20210;-72
2021/06/12 08:37:56;;;;;;;11.45;10.00;;;20.10;99.90;;;;;;5071621;28;20202;-71
2021/06/12 08:40:23;;;;;;;13.90;9.77;;;20.10;99.90;;;;;;5070878;28;20206;-70
2021/06/12 08:42:51;;;;;;;11.98;9.77;;;20.10;99.90;;;;;;5071182;28;20684;-70
2021/06/12 08:45:18;;;;;;;11.23;9.73;;;20.00;99.90;;;;;;5072102;28;20210;-71
2021/06/12 08:47:45;;;;;;;23.42;10.48;;;20.20;99.90;;;;;;5071464;28;20205;-70
2021/06/12 08:50:13;;;;;;;16.98;10.98;;;20.30;99.90;;;;;;5071578;28;20206;-71
2021/06/12 08:52:40;;;;;;;10.73;9.52;;;20.50;99.90;;;;;;5070011;28;20693;-70
2021/06/12 08:55:10;;;;;;;10.95;9.93;;;20.60;99.90;;;;;;5072382;28;20202;-71
2021/06/12 08:57:38;;;;;;;14.73;9.73;;;20.70;99.90;;;;;;5070726;28;20754;-70
2021/06/12 09:00:07;;;;;;;10.48;9.52;;;20.70;99.90;;;;;;5079359;28;20210;-70
2021/06/12 09:03:03;;;;;;;11.23;10.15;;;20.60;99.90;;;;;;5091660;28;20209;-71
2021/06/12 09:05:38;;;;;;;11.90;9.75;;;20.50;99.90;;;;;;5082027;28;20201;-71
2021/06/12 09:08:06;;;;;;;11.30;9.40;;;20.40;99.90;;;;;;5076288;28;20210;-70
2021/06/12 09:10:34;;;;;;;13.02;9.82;;;20.60;99.90;;;;;;5081468;28;20232;-70
2021/06/12 09:13:01;;;;;;;12.10;9.18;;;20.70;99.90;;;;;;5086981;28;20232;-71
2021/06/12 09:15:28;;;;;;;10.73;9.68;;;20.80;99.90;;;;;;5090769;28;20205;-70
2021/06/12 09:17:54;;;;;;;10.15;9.13;;;21.00;99.90;;;;;;5091480;28;20212;-70
2021/06/12 09:20:43;;;;;;;14.25;9.57;;;20.90;99.90;;;;;;5091133;28;20296;-70
2021/06/12 09:23:13;;;;;;;10.88;9.73;;;21.20;99.90;;;;;;5075883;28;109330;-69
2021/06/12 09:25:43;;;;;;;12.68;9.80;;;21.30;99.90;;;;;;5071611;28;20202;-70
2021/06/12 09:28:09;;;;;;;10.73;9.27;;;21.30;99.90;;;;;;5072146;28;20206;-70
2021/06/12 09:30:36;;;;;;;10.50;9.48;;;21.40;99.90;;;;;;5071523;28;20210;-70
2021/06/12 09:33:03;;;;;;;10.27;9.10;;;21.40;99.90;;;;;;5072038;28;20233;-70
2021/06/12 09:35:32;;;;;;;8.60;7.90;;;21.70;99.90;;;;;;5071167;28;20327;-68
2021/06/12 09:38:00;;;;;;;14.07;10.38;;;21.50;99.90;;;;;;5071856;28;20259;-71
2021/06/12 09:40:31;;;;;;;13.10;10.20;;;21.60;99.90;;;;;;5071531;28;20582;-69
2021/06/12 09:43:01;;;;;;;11.10;8.90;;;21.80;99.90;;;;;;5071817;28;20297;-70
2021/06/12 09:45:29;;;;;;;11.55;9.43;;;22.20;99.90;;;;;;5071643;28;20210;-70
2021/06/12 09:48:08;;;;;;;11.70;8.75;;;22.30;99.90;;;;;;5071431;28;20202;-70
2021/06/12 09:50:35;;;;;;;9.68;8.73;;;22.30;99.90;;;;;;5071299;28;20202;-69
2021/06/12 09:53:11;;;;;;;9.75;8.75;;;22.50;99.90;;;;;;5070296;28;20257;-70
2021/06/12 09:55:38;;;;;;;9.30;8.52;;;22.80;99.90;;;;;;5070982;28;20202;-71
2021/06/12 09:58:06;;;;;;;9.63;8.63;;;22.90;99.90;;;;;;5069307;28;20232;-72
2021/06/12 10:00:35;;;;;;;14.32;8.43;;;23.10;99.90;;;;;;5071564;28;20208;-72
2021/06/12 10:03:02;;;;;;;11.45;9.27;;;23.50;99.90;;;;;;5074846;28;20217;-72
2021/06/12 10:05:28;;;;;;;10.55;9.50;;;23.60;99.90;;;;;;5089661;28;20202;-71
2021/06/12 10:07:55;;;;;;;9.80;8.88;;;23.70;99.90;;;;;;5091734;28;20596;-71
2021/06/12 10:10:22;;;;;;;10.15;9.15;;;23.80;99.90;;;;;;5076848;28;20205;-71
2021/06/12 10:12:49;;;;;;;10.68;9.63;;;23.60;99.90;;;;;;5091470;28;20282;-72
2021/06/12 10:15:18;;;;;;;10.63;9.18;;;23.10;99.90;;;;;;5091638;28;20257;-71
2021/06/12 10:17:47;;;;;;;10.70;9.45;;;22.80;99.90;;;;;;5091660;28;20214;-71
2021/06/12 10:20:16;;;;;;;12.70;9.13;;;22.70;99.90;;;;;;5080465;28;20296;-70
2021/06/12 10:22:44;;;;;;;8.60;7.55;;;22.80;99.90;;;;;;5078534;28;20232;-70
2021/06/12 10:25:13;;;;;;;11.80;9.63;;;23.50;99.90;;;;;;5073808;28;20221;-71
2021/06/12 10:27:41;;;;;;;10.73;9.30;;;23.50;99.90;;;;;;5070553;28;20283;-71
2021/06/12 10:30:09;;;;;;;10.85;8.25;;;23.50;99.90;;;;;;5070871;28;20312;-71
2021/06/12 10:32:42;;;;;;;18.15;12.30;;;23.90;99.90;;;;;;5077065;28;20326;-71
2021/06/12 10:35:10;;;;;;;36.72;16.55;;;24.10;99.90;;;;;;5077415;28;20599;-72
2021/06/12 10:37:58;;;;;;;11.50;8.60;;;24.20;99.90;;;;;;5078146;28;20213;-71
2021/06/12 10:40:42;;;;;;;8.90;8.10;;;23.90;99.90;;;;;;5075351;28;20212;-72
2021/06/12 10:43:14;;;;;;;8.10;7.50;;;23.90;99.90;;;;;;5062167;28;20214;-73
2021/06/12 10:45:43;;;;;;;8.65;7.60;;;24.40;99.90;;;;;;5069832;28;20832;-72
2021/06/12 10:48:41;;;;;;;8.32;7.53;;;24.70;99.90;;;;;;5064409;28;20218;-72
2021/06/12 10:51:09;;;;;;;10.73;7.20;;;24.30;99.90;;;;;;5070331;28;20292;-71
2021/06/12 10:53:37;;;;;;;8.15;7.18;;;25.00;99.90;;;;;;5070099;28;20268;-70
2021/06/12 10:56:04;;;;;;;8.90;8.05;;;25.60;99.90;;;;;;5070182;28;20210;-71
2021/06/12 10:58:48;;;;;;;8.63;7.35;;;25.70;99.90;;;;;;5073480;28;20206;-71
2021/06/12 11:01:32;;;;;;;9.50;7.20;;;26.40;99.90;;;;;;5091201;28;20220;-71
2021/06/12 11:04:05;;;;;;;8.27;7.57;;;26.30;99.90;;;;;;5063539;28;20205;-72
2021/06/12 11:06:37;;;;;;;8.57;7.63;;;25.60;99.90;;;;;;5089496;28;20591;-72
2021/06/12 11:09:39;;;;;;;8.77;7.88;;;25.10;99.90;;;;;;5086380;28;20351;-72
2021/06/12 11:12:34;;;;;;;8.45;7.65;;;24.20;99.90;;;;;;5069866;28;20222;-73
2021/06/12 11:15:04;;;;;;;9.70;8.15;;;23.80;99.90;;;;;;5066598;28;20599;-71
2021/06/12 11:17:30;;;;;;;8.40;7.60;;;24.90;99.90;;;;;;5067124;28;20663;-72
2021/06/12 11:20:27;;;;;;;8.82;7.70;;;24.80;99.90;;;;;;5069990;28;20225;-72
2021/06/12 11:23:03;;;;;;;10.65;8.27;;;25.40;99.90;;;;;;5069516;28;20246;-72
2021/06/12 11:25:55;;;;;;;9.05;8.25;;;24.90;99.90;;;;;;5069896;28;20206;-72
2021/06/12 11:28:36;;;;;;;9.20;8.13;;;24.10;99.90;;;;;;5067632;28;20285;-72
2021/06/12 11:31:26;;;;;;;9.13;8.30;;;24.30;99.90;;;;;;5073648;28;20197;-71
2021/06/12 11:34:15;;;;;;;11.57;9.15;;;24.30;99.90;;;;;;5082340;28;20252;-71
2021/06/12 11:36:45;;;;;;;9.38;8.25;;;24.40;99.90;;;;;;5074503;28;20205;-71
2021/06/12 11:39:12;;;;;;;9.13;8.07;;;24.80;99.90;;;;;;5081464;28;20209;-71
2021/06/12 11:41:38;;;;;;;8.07;7.28;;;25.00;99.90;;;;;;5069911;28;20217;-71
2021/06/12 11:44:07;;;;;;;11.55;9.55;;;25.20;99.90;;;;;;5071465;28;20264;-71
2021/06/12 11:46:36;;;;;;;9.40;7.95;;;24.90;99.90;;;;;;5072875;28;20206;-71
2021/06/12 11:49:05;;;;;;;15.13;9.57;;;24.40;99.90;;;;;;5071467;28;20213;-71
2021/06/12 11:51:33;;;;;;;10.77;7.95;;;24.80;99.90;;;;;;5070008;28;20210;-71
2021/06/12 11:54:04;;;;;;;8.77;7.95;;;25.10;99.90;;;;;;5073246;28;20268;-71
2021/06/12 11:56:32;;;;;;;8.50;7.70;;;25.10;99.90;;;;;;5074126;28;20198;-69
2021/06/12 11:59:00;;;;;;;9.20;8.18;;;24.70;99.90;;;;;;5071465;28;20236;-71
2021/06/12 12:01:38;;;;;;;7.78;7.07;;;24.20;99.90;;;;;;5069335;28;20217;-70
2021/06/12 12:04:06;;;;;;;9.00;8.18;;;24.50;99.90;;;;;;5052070;28;20731;-69
2021/06/12 12:06:33;;;;;;;9.32;8.43;;;24.60;99.90;;;;;;5072336;28;20202;-69
2021/06/12 12:08:59;;;;;;;8.95;8.15;;;24.30;99.90;;;;;;5070239;28;20206;-69
2021/06/12 12:11:27;;;;;;;9.52;8.63;;;24.20;99.90;;;;;;5069833;28;20700;-68
2021/06/12 12:14:00;;;;;;;7.13;6.55;;;24.60;99.90;;;;;;5068644;28;20233;-70
2021/06/12 12:16:26;;;;;;;8.25;6.93;;;25.00;99.90;;;;;;5063851;28;20198;-71
2021/06/12 12:18:54;;;;;;;8.57;7.75;;;25.10;99.90;;;;;;5075855;28;20580;-70
2021/06/12 12:21:33;;;;;;;7.05;6.45;;;24.80;99.90;;;;;;5071999;28;20214;-70
2021/06/12 12:24:00;;;;;;;8.45;7.50;;;24.90;99.90;;;;;;5080127;28;20704;-70
2021/06/12 12:26:28;;;;;;;7.38;6.65;;;25.40;99.90;;;;;;5072320;28;20202;-70
2021/06/12 12:28:56;;;;;;;7.38;6.72;;;25.80;99.90;;;;;;5072911;28;20202;-70
2021/06/12 12:31:24;;;;;;;8.15;7.28;;;25.90;99.90;;;;;;5071129;28;20214;-70
2021/06/12 12:33:52;;;;;;;8.63;7.38;;;26.20;99.90;;;;;;5072882;28;20237;-71
2021/06/12 12:36:19;;;;;;;9.38;7.20;;;25.70;99.90;;;;;;5072942;28;20210;-70
2021/06/12 12:38:55;;;;;;;9.02;7.35;;;25.60;99.90;;;;;;5073234;28;20580;-71
2021/06/12 12:41:22;;;;;;;9.77;7.57;;;25.70;99.90;;;;;;5064263;28;20202;-69
2021/06/12 12:44:08;;;;;;;8.13;6.68;;;25.80;99.90;;;;;;5071161;28;20210;-70
2021/06/12 12:46:36;;;;;;;7.30;6.60;;;25.90;99.90;;;;;;5065533;28;20670;-71
2021/06/12 12:49:03;;;;;;;7.05;6.45;;;26.00;99.90;;;;;;5072673;28;20336;-71
2021/06/12 12:51:30;;;;;;;8.27;7.10;;;26.00;99.90;;;;;;5071996;28;20206;-72